Time,TemperatureF,DewpointF,PressureIn,WindDirection,WindDirectionDegrees,WindSpeedMPH,WindSpeedGustMPH,Humidity,HourlyPrecipIn,Conditions,Clouds,dailyrainin,SoftwareType,DateUTC
2015-03-30 00:23:00,33.0,21.0,30.07,North,0,0.0,2.0,60,0.00,,,0.00,,2015-03-30 04:23:00,
2015-03-30 00:53:00,33.0,19.0,30.06,North,0,0.0,3.0,57,0.00,,,0.00,,2015-03-30 04:53:00,
2015-03-30 01:23:00,34.0,19.0,30.02,North,0,0.0,6.0,54,0.00,,,0.00,,2015-03-30 05:23:00,
2015-03-30 01:42:00,34.0,20.0,30.02,North,0,0.0,4.0,56,0.00,,,0.00,,2015-03-30 05:42:00,
2015-03-30 01:52:00,34.0,20.0,30.02,North,0,0.0,4.0,55,0.00,,,0.00,,2015-03-30 05:52:00,
2015-03-30 02:22:00,34.0,20.0,30.02,North,0,0.0,3.0,55,0.00,,,0.00,,2015-03-30 06:22:00,
2015-03-30 02:52:00,34.0,20.0,30.01,North,0,0.0,3.0,55,0.00,,,0.00,,2015-03-30 06:52:00,
2015-03-30 03:21:00,34.0,20.0,30.00,SW,214,1.0,7.0,56,0.00,,,0.00,,2015-03-30 07:21:00,
2015-03-30 03:51:00,34.0,25.0,29.98,SW,219,1.0,6.0,69,0.00,,,0.00,,2015-03-30 07:51:00,
2015-03-30 04:21:00,34.0,26.0,29.95,South,188,2.0,5.0,72,0.00,,,0.00,,2015-03-30 08:21:00,
2015-03-30 04:52:00,34.0,25.0,29.91,North,0,0.0,5.0,69,0.00,,,0.00,,2015-03-30 08:52:00,
2015-03-30 05:21:00,34.0,26.0,29.91,SSW,195,2.0,6.0,71,0.00,,,0.00,,2015-03-30 09:21:00,
2015-03-30 05:53:00,34.0,26.0,29.88,SSW,202,1.0,9.0,71,0.00,,,0.00,,2015-03-30 09:53:00,
2015-03-30 06:23:00,35.0,28.0,29.87,SW,214,3.0,14.0,74,0.00,,,0.00,,2015-03-30 10:23:00,
2015-03-30 06:53:00,35.0,28.0,29.87,SSW,197,1.0,5.0,76,0.00,,,0.00,,2015-03-30 10:53:00,
2015-03-30 07:23:00,35.0,28.0,29.86,North,0,0.0,9.0,76,0.00,,,0.00,,2015-03-30 11:23:00,
2015-03-30 07:52:00,35.0,29.0,29.85,North,0,0.0,6.0,78,0.00,,,0.00,,2015-03-30 11:52:00,
2015-03-30 08:12:00,36.0,30.0,29.84,SSE,158,1.0,6.0,78,0.00,,,0.00,,2015-03-30 12:12:00,
2015-03-30 08:22:00,36.0,30.0,29.84,South,185,1.0,7.0,78,0.00,,,0.00,,2015-03-30 12:22:00,
2015-03-30 08:52:00,37.0,31.0,29.83,South,183,1.0,5.0,79,0.00,,,0.00,,2015-03-30 12:52:00,
2015-03-30 09:21:00,37.0,31.0,29.84,SSW,213,1.0,4.0,78,0.00,,,0.00,,2015-03-30 13:21:00,
2015-03-30 09:52:00,39.0,32.0,29.83,SW,220,1.0,6.0,75,0.00,,,0.00,,2015-03-30 13:52:00,
2015-03-30 10:21:00,41.0,32.0,29.83,SSW,207,2.0,8.0,71,0.00,,,0.00,,2015-03-30 14:21:00,
2015-03-30 10:52:00,43.0,32.0,29.82,SW,216,1.0,7.0,66,0.00,,,0.00,,2015-03-30 14:52:00,
2015-03-30 11:21:00,46.0,33.0,29.82,SSW,203,3.0,7.0,60,0.00,,,0.00,,2015-03-30 15:21:00,
2015-03-30 11:53:00,48.0,34.0,29.81,WSW,245,1.0,10.0,59,0.00,,,0.00,,2015-03-30 15:53:00,
2015-03-30 12:22:00,48.0,34.0,29.81,WSW,245,2.0,6.0,59,0.00,,,0.00,,2015-03-30 16:22:00,
2015-03-30 12:53:00,51.0,38.0,29.80,WNW,287,1.0,10.0,60,0.00,,,0.00,,2015-03-30 16:53:00,
2015-03-30 13:23:00,53.0,37.0,29.80,West,279,1.0,7.0,55,0.00,,,0.00,,2015-03-30 17:23:00,
2015-03-30 13:53:00,51.0,37.0,29.79,WSW,258,1.0,10.0,58,0.00,,,0.00,,2015-03-30 17:53:00,
2015-03-30 14:12:00,50.0,36.0,29.80,West,273,1.0,6.0,59,0.00,,,0.00,,2015-03-30 18:12:00,
2015-03-30 15:21:00,54.0,38.0,29.78,West,275,2.0,10.0,54,-99.99,,,-99.99,,2015-03-30 19:21:00,
2015-03-30 15:51:00,54.0,36.0,29.78,West,280,3.0,12.0,50,-99.99,,,-99.99,,2015-03-30 19:51:00,
2015-03-30 17:42:00,54.0,34.0,29.78,WNW,299,2.0,6.0,47,-99.99,,,-99.99,,2015-03-30 21:42:00,
2015-03-30 18:51:00,51.0,31.0,29.79,West,278,3.0,14.0,46,-99.99,,,-99.99,,2015-03-30 22:51:00,